Time;durP1;ratioP1;P1;durP2;ratioP2;P2;SDS_P1;SDS_P2;PMS_P1;PMS_P2;Temp;Humidity;BMP_temperature;BMP_pressure;BME280_temperature;BME280_humidity;BME280_pressure;Samples;Min_cycle;Max_cycle;Signal;HPM_P1;HPM_P2
2022/02/17 00:00:31;;;;;;;3.70;2.40;;;;;;;8.57;68.66;97726.71;130323;1268;107839;-77
2022/02/17 00:03:44;;;;;;;4.90;3.20;;;;;;;8.53;68.82;97706.71;130291;1268;108848;-78
2022/02/17 00:06:50;;;;;;;3.80;2.60;;;;;;;8.49;68.78;97698.94;130247;1268;107730;-79
2022/02/17 00:09:56;;;;;;;3.90;2.60;;;;;;;8.44;68.86;97694.84;130301;1268;106645;-75
2022/02/17 00:13:02;;;;;;;4.10;2.50;;;;;;;8.37;69.20;97685.03;130242;1268;107767;-74
2022/02/17 00:16:08;;;;;;;3.70;2.20;;;;;;;8.32;69.05;97678.40;130301;1268;107544;-75
2022/02/17 00:19:14;;;;;;;3.60;2.30;;;;;;;8.34;69.03;97675.79;130202;1268;108678;-76
2022/02/17 00:22:19;;;;;;;4.60;2.70;;;;;;;8.37;69.18;97677.23;130253;1268;107788;-76
2022/02/17 00:25:25;;;;;;;4.10;2.50;;;;;;;8.43;69.28;97677.63;130266;1268;107023;-76
2022/02/17 00:28:31;;;;;;;4.10;2.40;;;;;;;8.45;69.11;97678.00;130247;1268;108686;-76
2022/02/17 00:31:37;;;;;;;4.10;2.30;;;;;;;8.46;69.24;97673.05;130287;1268;106696;-76
2022/02/17 00:34:45;;;;;;;3.50;2.30;;;;;;;8.46;69.30;97674.20;130204;1268;107704;-75
2022/02/17 00:37:51;;;;;;;4.20;2.70;;;;;;;8.44;69.38;97676.20;130236;1268;107653;-75
2022/02/17 00:40:57;;;;;;;3.90;2.50;;;;;;;8.41;69.40;97672.30;130200;1269;107873;-74
2022/02/17 00:44:03;;;;;;;3.10;2.00;;;;;;;8.38;69.68;97664.22;130179;1268;107775;-75
2022/02/17 00:47:11;;;;;;;4.20;2.50;;;;;;;8.41;69.70;97644.17;130213;1267;107825;-76
2022/02/17 00:50:16;;;;;;;4.00;2.90;;;;;;;8.44;69.68;97612.75;130199;1268;108651;-75
2022/02/17 00:53:22;;;;;;;3.70;2.60;;;;;;;8.48;69.67;97568.71;130251;1270;108993;-76
2022/02/17 00:56:27;;;;;;;3.80;2.50;;;;;;;8.49;69.47;97524.80;130264;1270;107920;-75
2022/02/17 00:59:33;;;;;;;4.00;2.80;;;;;;;8.45;69.55;97513.65;130254;1268;108998;-75
2022/02/17 01:02:39;;;;;;;2.90;2.50;;;;;;;8.38;69.55;97517.91;130317;1268;108867;-76
2022/02/17 01:05:46;;;;;;;3.30;2.50;;;;;;;8.29;69.83;97519.85;130263;1269;108225;-76
2022/02/17 01:08:52;;;;;;;3.70;2.30;;;;;;;8.18;69.71;97522.76;130264;1268;108769;-72
2022/02/17 01:12:00;;;;;;;3.30;2.30;;;;;;;8.12;69.81;97532.08;130234;1268;108209;-75
2022/02/17 01:15:07;;;;;;;4.30;2.20;;;;;;;8.10;70.17;97502.73;130255;1270;107800;-76
2022/02/17 01:18:13;;;;;;;3.10;2.30;;;;;;;8.10;70.14;97489.05;130287;1268;107842;-75
2022/02/17 01:21:21;;;;;;;5.40;2.40;;;;;;;8.10;69.91;97463.34;130125;1270;107696;-77
2022/02/17 01:24:26;;;;;;;3.40;2.80;;;;;;;8.09;70.15;97441.38;130260;1268;107550;-77
2022/02/17 01:27:33;;;;;;;3.40;2.80;;;;;;;8.10;69.99;97416.12;130262;1268;107655;-77
2022/02/17 01:30:39;;;;;;;3.10;2.70;;;;;;;8.11;70.08;97395.77;130181;1270;107672;-77
2022/02/17 01:33:45;;;;;;;3.40;2.50;;;;;;;8.12;70.30;97389.27;130121;1268;107625;-77
2022/02/17 01:36:53;;;;;;;3.70;2.50;;;;;;;8.10;70.22;97379.46;130235;1270;107819;-74
2022/02/17 01:40:00;;;;;;;3.20;2.00;;;;;;;8.10;70.39;97358.27;130135;1269;108968;-75
2022/02/17 01:43:06;;;;;;;3.60;2.50;;;;;;;8.13;70.77;97356.42;130156;1270;107622;-78
2022/02/17 01:46:12;;;;;;;3.20;2.50;;;;;;;8.19;70.60;97349.86;130275;1270;105526;-78
2022/02/17 01:49:18;;;;;;;2.90;2.30;;;;;;;8.26;70.43;97338.15;130263;1268;108161;-77
2022/02/17 01:52:23;;;;;;;5.50;2.50;;;;;;;8.32;70.55;97316.89;130146;1270;107698;-78
2022/02/17 01:55:29;;;;;;;4.20;2.90;;;;;;;8.34;71.40;97303.60;130223;1268;107712;-80
2022/02/17 01:58:35;;;;;;;3.90;2.90;;;;;;;8.32;71.36;97282.41;130209;1268;107801;-80
2022/02/17 02:01:46;;;;;;;3.40;2.50;;;;;;;8.27;71.69;97273.73;130234;1268;107821;-78
2022/02/17 02:04:51;;;;;;;3.30;2.40;;;;;;;8.24;71.65;97246.86;130176;1268;108471;-78
2022/02/17 02:07:57;;;;;;;4.20;2.70;;;;;;;8.26;71.89;97257.52;130281;1270;107714;-74
2022/02/17 02:11:08;;;;;;;3.30;2.50;;;;;;;8.31;72.18;97245.92;130281;1270;108794;-75
2022/02/17 02:14:22;;;;;;;4.00;2.90;;;;;;;8.34;72.53;97230.38;130295;1270;107704;-76
2022/02/17 02:17:29;;;;;;;3.00;2.70;;;;;;;8.35;72.87;97221.52;130212;1270;107852;-75
2022/02/17 02:20:40;;;;;;;2.70;2.30;;;;;;;8.32;73.42;97213.55;130180;1270;108692;-76
2022/02/17 02:23:46;;;;;;;2.80;2.20;;;;;;;8.30;73.63;97197.55;130141;1270;108839;-75
2022/02/17 02:26:51;;;;;;;4.00;2.60;;;;;;;8.29;74.21;97177.08;130308;1268;107842;-76
2022/02/17 02:30:09;;;;;;;3.60;2.70;;;;;;;8.28;74.68;97167.81;130267;1268;107791;-76
2022/02/17 02:33:16;;;;;;;4.10;2.90;;;;;;;8.28;75.35;97153.67;130350;1270;107752;-77
2022/02/17 02:36:22;;;;;;;3.20;2.50;;;;;;;8.23;75.89;97145.60;130141;1270;108696;-76
2022/02/17 02:39:27;;;;;;;2.80;2.30;;;;;;;8.19;75.62;97125.05;130140;1268;107684;-76
2022/02/17 02:42:35;;;;;;;3.20;2.40;;;;;;;8.20;75.89;97117.23;130208;1268;108917;-77
2022/02/17 02:45:44;;;;;;;4.10;2.50;;;;;;;8.23;75.78;97099.59;130149;1270;107671;-78
2022/02/17 02:48:54;;;;;;;2.80;2.50;;;;;;;8.26;76.24;97091.98;130180;1268;107780;-78
2022/02/17 02:52:00;;;;;;;2.80;2.30;;;;;;;8.24;76.19;97085.38;130278;1268;107664;-77
2022/02/17 02:55:26;;;;;;;2.60;2.20;;;;;;;8.22;76.02;97078.36;130282;1268;109239;-76
2022/02/17 02:58:32;;;;;;;3.30;2.50;;;;;;;8.22;76.47;97071.04;130250;1268;107623;-78
2022/02/17 03:01:37;;;;;;;3.00;2.50;;;;;;;8.24;76.39;97077.32;130192;1268;107767;-75
2022/02/17 03:04:43;;;;;;;3.20;2.60;;;;;;;8.27;76.87;97061.36;130209;1269;107665;-75
2022/02/17 03:07:56;;;;;;;4.40;2.60;;;;;;;8.28;77.02;97058.66;130202;1270;106673;-76
2022/02/17 03:11:02;;;;;;;2.80;2.50;;;;;;;8.26;77.52;97060.95;130186;1270;107747;-74
2022/02/17 03:14:13;;;;;;;3.80;2.70;;;;;;;8.28;77.84;97052.73;130281;1270;108819;-75
2022/02/17 03:17:19;;;;;;;3.20;2.70;;;;;;;8.30;77.43;97054.38;130258;1269;107581;-75
2022/02/17 03:20:25;;;;;;;3.40;2.50;;;;;;;8.31;77.95;97052.38;130159;1268;107684;-73
2022/02/17 03:23:32;;;;;;;2.20;1.90;;;;;;;8.30;78.06;97051.25;130182;1270;107532;-75
2022/02/17 03:26:43;;;;;;;3.20;2.20;;;;;;;8.34;77.91;97034.09;130284;1268;108794;-76
2022/02/17 03:29:49;;;;;;;3.00;2.40;;;;;;;8.39;78.48;97028.35;130289;1268;107781;-76
2022/02/17 03:32:55;;;;;;;3.10;2.60;;;;;;;8.42;78.53;97018.37;130283;1270;108830;-77
2022/02/17 03:36:02;;;;;;;2.40;2.20;;;;;;;8.43;78.29;97010.14;130252;1268;106690;-80
2022/02/17 03:39:08;;;;;;;2.50;2.20;;;;;;;8.44;78.80;97000.50;130208;1270;107823;-79
2022/02/17 03:42:32;;;;;;;2.90;2.50;;;;;;;8.48;78.92;96988.70;130219;1269;107728;-78
2022/02/17 03:45:41;;;;;;;2.70;2.50;;;;;;;8.51;78.80;96973.13;130222;1268;107679;-79
2022/02/17 03:48:48;;;;;;;3.30;2.60;;;;;;;8.54;78.85;96962.88;130254;1268;107667;-77
2022/02/17 03:51:57;;;;;;;4.10;2.80;;;;;;;8.54;78.62;96957.92;130110;1270;107822;-77
2022/02/17 03:55:04;;;;;;;2.80;2.30;;;;;;;8.53;79.22;96950.43;130218;1268;108739;-77
2022/02/17 03:58:09;;;;;;;3.30;2.80;;;;;;;8.53;79.29;96940.61;130310;1269;107770;-76
2022/02/17 04:01:16;;;;;;;4.00;2.60;;;;;;;8.55;79.24;96931.79;130345;1268;108804;-75
2022/02/17 04:04:25;;;;;;;3.00;2.70;;;;;;;8.57;79.45;96930.84;130268;1269;108774;-77
2022/02/17 04:07:34;;;;;;;2.70;2.40;;;;;;;8.56;79.50;96916.45;130300;1267;108763;-79
2022/02/17 04:10:52;;;;;;;2.30;2.00;;;;;;;8.54;79.42;96891.41;130250;1268;107799;-78
2022/02/17 04:14:02;;;;;;;2.30;2.00;;;;;;;8.56;79.73;96885.17;130331;1268;109234;-79
2022/02/17 04:17:21;;;;;;;3.00;2.70;;;;;;;8.60;79.84;96876.55;130315;1268;108746;-78
2022/02/17 04:20:45;;;;;;;3.10;2.30;;;;;;;8.63;79.95;96869.02;130263;1270;108951;-79
2022/02/17 04:24:10;;;;;;;2.20;1.90;;;;;;;8.64;79.84;96855.72;130235;1268;109043;-80
2022/02/17 04:27:28;;;;;;;3.10;2.30;;;;;;;8.65;79.78;96848.52;130175;1268;108693;-78
2022/02/17 04:30:43;;;;;;;2.90;2.40;;;;;;;8.69;79.94;96827.94;130234;1270;108887;-78
2022/02/17 04:33:49;;;;;;;3.20;2.50;;;;;;;8.73;79.70;96821.27;130242;1270;108743;-79
2022/02/17 04:37:03;;;;;;;3.40;2.30;;;;;;;8.73;80.04;96802.73;130296;1268;108909;-79
2022/02/17 04:40:10;;;;;;;2.20;1.90;;;;;;;8.75;79.94;96798.54;130150;1270;108948;-78
2022/02/17 04:43:26;;;;;;;5.40;3.90;;;;;;;8.79;80.13;96800.23;130170;1268;108837;-76
2022/02/17 04:46:31;;;;;;;3.90;2.50;;;;;;;8.84;80.65;96781.27;130214;1270;108679;-79
2022/02/17 04:49:37;;;;;;;3.00;2.50;;;;;;;8.88;80.29;96799.86;130134;1270;108872;-79
2022/02/17 04:52:42;;;;;;;3.00;2.10;;;;;;;8.90;79.99;96820.41;130094;1268;108774;-78
2022/02/17 04:55:48;;;;;;;2.20;1.50;;;;;;;8.94;80.08;96847.14;130088;1268;108779;-79
2022/02/17 04:58:53;;;;;;;6.90;3.80;;;;;;;8.98;80.90;96846.67;130164;1270;108912;-78
2022/02/17 05:01:59;;;;;;;23.40;8.50;;;;;;;9.04;81.01;96913.89;130277;1269;108857;-80
2022/02/17 05:05:12;;;;;;;9.00;4.10;;;;;;;9.11;81.71;96923.33;130296;1268;108717;-79
2022/02/17 05:08:17;;;;;;;7.90;2.40;;;;;;;9.12;82.42;97012.61;130231;1268;106508;-79
2022/02/17 05:11:24;;;;;;;2.80;1.00;;;;;;;9.02;81.11;97063.78;130229;1268;108862;-79
2022/02/17 05:14:31;;;;;;;5.10;0.70;;;;;;;8.84;79.84;97097.80;130237;1268;108846;-78
2022/02/17 05:17:37;;;;;;;3.10;0.80;;;;;;;8.51;78.47;97129.08;130216;1268;108767;-79
2022/02/17 05:20:42;;;;;;;2.70;0.90;;;;;;;8.21;79.48;97141.16;130141;1268;108754;-78
2022/02/17 05:24:09;;;;;;;12.40;5.10;;;;;;;7.98;79.65;97159.28;130303;1268;108879;-78
2022/02/17 05:27:50;;;;;;;6.60;2.90;;;;;;;7.78;79.21;97133.33;130307;1268;107843;-79
2022/02/17 05:31:14;;;;;;;165.70;45.30;;;;;;;7.62;79.29;97116.95;130353;1268;108887;-79
2022/02/17 05:34:38;;;;;;;84.30;25.90;;;;;;;7.48;78.89;97070.37;130258;1268;108850;-79
2022/02/17 05:38:03;;;;;;;114.50;50.10;;;;;;;7.40;78.86;97047.67;130321;1269;108675;-79
2022/02/17 05:41:17;;;;;;;40.90;21.80;;;;;;;7.41;79.02;97080.27;130301;1270;109031;-78
2022/02/17 05:44:24;;;;;;;5.10;2.50;;;;;;;7.44;78.72;97070.79;130234;1268;108883;-79
2022/02/17 05:47:30;;;;;;;12.60;5.40;;;;;;;7.45;78.58;97030.13;130334;1268;108894;-78
2022/02/17 05:50:35;;;;;;;15.90;7.90;;;;;;;7.46;78.66;97000.21;130293;1268;108758;-77
2022/02/17 05:53:41;;;;;;;4.20;2.10;;;;;;;7.47;78.89;96972.02;130245;1268;108941;-78
2022/02/17 05:56:46;;;;;;;23.80;12.60;;;;;;;7.49;78.92;96965.38;130333;1268;108750;-78
2022/02/17 05:59:51;;;;;;;252.80;113.80;;;;;;;7.53;78.62;96946.35;130418;1268;108870;-78
2022/02/17 06:02:57;;;;;;;156.40;68.40;;;;;;;7.57;78.83;96929.17;130374;1268;108524;-79
2022/02/17 06:06:02;;;;;;;78.90;34.20;;;;;;;7.58;78.25;96944.14;130373;1268;108828;-79
2022/02/17 06:09:08;;;;;;;72.50;35.10;;;;;;;7.57;78.44;96977.79;130366;1268;108728;-79
2022/02/17 06:12:13;;;;;;;44.30;21.90;;;;;;;7.50;78.05;96986.52;130362;1268;108656;-77
2022/02/17 06:15:20;;;;;;;32.20;18.60;;;;;;;7.41;78.05;96995.27;130371;1268;108895;-78
2022/02/17 06:18:25;;;;;;;17.30;11.00;;;;;;;7.33;78.10;97005.35;130371;1268;107610;-78
2022/02/17 06:21:31;;;;;;;4.70;3.10;;;;;;;7.28;78.14;96979.30;130388;1268;107600;-78
2022/02/17 06:24:36;;;;;;;3.80;2.00;;;;;;;7.29;78.17;96948.95;130477;1267;108593;-79
2022/02/17 06:27:42;;;;;;;2.90;2.10;;;;;;;7.35;78.36;96959.11;130337;1267;106554;-79
2022/02/17 06:30:47;;;;;;;3.10;2.00;;;;;;;7.36;77.99;96974.81;130392;1268;109038;-78
2022/02/17 06:33:53;;;;;;;4.20;2.50;;;;;;;7.37;77.87;96960.73;130372;1268;108590;-79
2022/02/17 06:36:58;;;;;;;18.50;12.00;;;;;;;7.37;77.94;96994.80;130359;1268;106948;-79
2022/02/17 06:40:04;;;;;;;3.20;1.50;;;;;;;7.36;77.80;96947.55;130432;1268;107727;-78
2022/02/17 06:43:11;;;;;;;3.00;1.70;;;;;;;7.34;77.85;96955.98;130427;1266;108645;-78
2022/02/17 06:46:17;;;;;;;2.40;0.90;;;;;;;7.35;77.73;96946.14;130413;1268;109190;-76
2022/02/17 06:49:22;;;;;;;2.00;0.80;;;;;;;7.38;77.79;96889.79;130378;1268;108838;-75
2022/02/17 06:52:28;;;;;;;3.00;1.70;;;;;;;7.43;77.93;96907.30;130331;1268;108714;-75
2022/02/17 06:55:35;;;;;;;7.20;4.50;;;;;;;7.49;77.56;96970.00;130290;1268;107517;-75
2022/02/17 06:58:40;;;;;;;8.20;4.70;;;;;;;7.56;77.41;96995.83;130326;1268;108887;-76
2022/02/17 07:01:45;;;;;;;3.60;2.20;;;;;;;7.56;77.58;96996.97;130358;1268;108932;-75
2022/02/17 07:04:52;;;;;;;4.30;2.40;;;;;;;7.55;77.54;97009.07;130411;1268;108934;-75
2022/02/17 07:07:57;;;;;;;4.40;1.60;;;;;;;7.54;77.45;97040.30;130434;1268;108761;-79
2022/02/17 07:11:04;;;;;;;2.30;1.40;;;;;;;7.54;77.59;97064.46;130488;1268;108866;-75
2022/02/17 07:14:11;;;;;;;3.50;1.50;;;;;;;7.57;77.66;97059.34;130420;1268;108568;-76
2022/02/17 07:17:16;;;;;;;14.70;8.20;;;;;;;7.59;77.70;97046.10;130478;1268;107720;-78
2022/02/17 07:20:22;;;;;;;4.20;2.60;;;;;;;7.59;77.36;97032.39;130378;1267;108721;-78
2022/02/17 07:23:29;;;;;;;46.50;27.10;;;;;;;7.56;77.41;97024.69;130443;1268;109703;-77
2022/02/17 07:26:36;;;;;;;35.50;19.90;;;;;;;7.55;77.24;97035.52;130433;1268;108965;-77
2022/02/17 07:29:42;;;;;;;10.70;6.40;;;;;;;7.53;77.47;97034.59;130408;1268;108767;-75
2022/02/17 07:32:47;;;;;;;10.20;4.80;;;;;;;7.51;77.46;97027.04;130397;1268;108848;-78
2022/02/17 07:35:52;;;;;;;32.40;17.10;;;;;;;7.52;77.34;97028.35;130399;1268;108975;-78
2022/02/17 07:38:58;;;;;;;14.70;6.90;;;;;;;7.56;77.24;97026.84;130363;1268;108956;-77
2022/02/17 07:42:03;;;;;;;29.70;16.30;;;;;;;7.63;77.48;97030.69;130377;1267;108153;-79
2022/02/17 07:45:11;;;;;;;17.70;8.70;;;;;;;7.71;77.48;97041.73;130513;1268;108720;-78
2022/02/17 07:48:17;;;;;;;21.30;10.50;;;;;;;7.78;77.35;97042.50;130419;1268;107164;-78
2022/02/17 07:51:22;;;;;;;23.90;12.80;;;;;;;7.82;77.39;97046.58;130385;1268;108786;-77
2022/02/17 07:54:28;;;;;;;113.30;45.90;;;;;;;7.85;77.19;97061.91;130424;1268;108941;-78
2022/02/17 07:57:33;;;;;;;67.90;30.00;;;;;;;7.86;77.12;97068.11;130360;1268;108831;-78
2022/02/17 08:00:38;;;;;;;89.50;38.20;;;;;;;7.92;77.19;97065.25;130399;1268;108788;-77
2022/02/17 08:03:44;;;;;;;70.50;32.00;;;;;;;7.97;76.95;97066.86;130395;1268;108869;-77
2022/02/17 08:06:50;;;;;;;22.10;9.60;;;;;;;7.99;76.80;97064.84;130376;1268;108870;-79
2022/02/17 08:09:55;;;;;;;56.90;26.70;;;;;;;8.00;76.64;97067.07;130348;1268;108664;-79
2022/02/17 08:13:00;;;;;;;55.30;27.70;;;;;;;7.99;76.54;97055.61;130402;1267;108654;-78
2022/02/17 08:16:06;;;;;;;103.60;50.50;;;;;;;8.01;76.71;97064.13;130297;1268;109136;-78
2022/02/17 08:19:12;;;;;;;129.40;59.00;;;;;;;8.02;76.60;97040.23;130394;1266;108839;-78
2022/02/17 08:22:17;;;;;;;65.50;30.00;;;;;;;8.02;76.36;97034.54;130349;1268;108798;-78
2022/02/17 08:25:24;;;;;;;19.20;9.30;;;;;;;8.07;76.66;97031.98;130285;1268;108493;-78
2022/02/17 08:28:29;;;;;;;49.20;23.20;;;;;;;8.15;76.48;97036.41;130385;1268;108858;-76
2022/02/17 08:31:35;;;;;;;87.60;37.60;;;;;;;8.24;76.45;97046.88;130370;1266;108811;-78
2022/02/17 08:34:40;;;;;;;47.70;21.60;;;;;;;8.35;76.37;97072.48;130364;1268;108780;-77
2022/02/17 08:37:46;;;;;;;34.40;16.70;;;;;;;8.42;76.44;97063.02;130379;1267;108855;-78
2022/02/17 08:40:51;;;;;;;22.70;10.70;;;;;;;8.44;76.45;97051.94;130374;1268;108881;-77
2022/02/17 08:43:57;;;;;;;29.50;14.40;;;;;;;8.47;76.56;97034.29;130394;1268;108782;-78
2022/02/17 08:47:02;;;;;;;59.60;30.10;;;;;;;8.53;76.28;97025.15;130478;1268;108859;-76
2022/02/17 08:50:10;;;;;;;12.20;5.90;;;;;;;8.57;76.14;97020.08;130513;1268;108709;-77
2022/02/17 08:53:16;;;;;;;38.80;23.30;;;;;;;8.64;76.28;97028.02;130549;1268;109015;-77
2022/02/17 08:56:21;;;;;;;13.30;6.90;;;;;;;8.69;76.24;97026.02;130329;1268;107717;-77
2022/02/17 08:59:27;;;;;;;43.10;23.10;;;;;;;8.71;76.03;97043.01;130458;1268;108882;-77
2022/02/17 09:02:33;;;;;;;31.40;17.60;;;;;;;8.74;76.19;97043.85;130499;1268;108772;-77
2022/02/17 09:05:38;;;;;;;10.30;6.20;;;;;;;8.78;76.22;97037.29;130516;1268;108690;-77
2022/02/17 09:08:44;;;;;;;9.20;5.50;;;;;;;8.82;76.32;97036.02;130444;1267;108966;-77
2022/02/17 09:11:49;;;;;;;7.80;4.30;;;;;;;8.90;76.28;97030.86;130509;1268;108703;-77
2022/02/17 09:14:55;;;;;;;9.90;4.80;;;;;;;9.04;76.15;97021.26;130455;1268;108739;-77
2022/02/17 09:18:00;;;;;;;14.40;8.00;;;;;;;9.18;76.19;97037.73;130525;1268;108969;-77
2022/02/17 09:21:05;;;;;;;19.90;11.80;;;;;;;9.32;75.92;97045.30;130375;1268;105830;-77
2022/02/17 09:24:11;;;;;;;23.70;13.20;;;;;;;9.41;76.02;97040.23;130372;1267;108763;-77
2022/02/17 09:27:16;;;;;;;15.30;9.60;;;;;;;9.54;75.95;97037.80;130393;1266;108779;-79
2022/02/17 09:30:22;;;;;;;18.60;11.20;;;;;;;9.57;75.68;97044.91;130422;1268;107677;-79
2022/02/17 09:33:27;;;;;;;20.20;11.10;;;;;;;9.49;75.51;97046.77;130384;1268;108901;-77
2022/02/17 09:36:33;;;;;;;8.00;4.80;;;;;;;9.41;75.64;97045.10;130415;1268;109077;-78
2022/02/17 09:39:38;;;;;;;9.80;6.20;;;;;;;9.39;75.42;97047.73;130476;1268;108736;-78
2022/02/17 09:42:46;;;;;;;31.20;16.00;;;;;;;9.43;75.35;97042.08;130474;1268;109266;-79
2022/02/17 09:45:51;;;;;;;11.60;5.50;;;;;;;9.52;75.49;97036.20;130413;1268;108708;-77
2022/02/17 09:49:00;;;;;;;6.90;3.40;;;;;;;9.59;74.69;97035.02;130395;1267;109051;-78
2022/02/17 09:52:08;;;;;;;9.80;4.40;;;;;;;9.60;75.15;97025.56;130389;1265;107302;-78
2022/02/17 09:55:16;;;;;;;8.90;5.60;;;;;;;9.65;74.79;97016.69;130455;1268;108750;-77
2022/02/17 09:58:21;;;;;;;9.40;3.90;;;;;;;9.70;74.23;97013.67;130199;1268;108729;-78
2022/02/17 10:01:29;;;;;;;14.70;6.70;;;;;;;9.73;73.54;97008.38;130392;1268;108916;-78
2022/02/17 10:04:35;;;;;;;14.10;6.20;;;;;;;9.75;73.23;97015.23;130423;1268;108739;-78
2022/02/17 10:07:42;;;;;;;7.90;3.40;;;;;;;9.66;72.66;97013.77;130506;1268;108319;-76
2022/02/17 10:10:48;;;;;;;16.40;5.90;;;;;;;9.57;73.34;97004.94;130541;1266;108797;-76
2022/02/17 10:14:02;;;;;;;7.70;3.10;;;;;;;9.52;73.80;97015.66;130403;1268;108473;-77
2022/02/17 10:17:09;;;;;;;7.70;3.20;;;;;;;9.44;74.27;97024.48;130431;1267;108850;-78
2022/02/17 10:20:15;;;;;;;21.80;8.20;;;;;;;9.20;74.78;97023.42;130457;1266;108827;-78
2022/02/17 10:23:22;;;;;;;11.90;7.20;;;;;;;9.04;75.24;97020.75;130395;1268;108662;-78
2022/02/17 10:26:30;;;;;;;19.00;7.50;;;;;;;8.94;75.53;97013.96;130387;1268;178453;-78
2022/02/17 10:29:37;;;;;;;8.70;4.00;;;;;;;8.92;75.66;97004.30;130434;1268;108892;-77
2022/02/17 10:32:56;;;;;;;6.60;3.40;;;;;;;8.86;75.76;96999.86;130409;1268;108690;-78
2022/02/17 10:36:02;;;;;;;9.80;4.50;;;;;;;8.75;75.70;96998.55;130349;1268;109072;-78
2022/02/17 10:39:15;;;;;;;5.40;2.20;;;;;;;8.62;75.58;96999.96;130398;1268;108740;-78
2022/02/17 10:42:23;;;;;;;12.10;5.00;;;;;;;8.49;75.46;97042.27;130361;1268;108651;-78
2022/02/17 10:45:29;;;;;;;6.90;3.40;;;;;;;8.26;76.16;97096.46;130394;1268;108824;-77
2022/02/17 10:48:35;;;;;;;5.60;2.30;;;;;;;7.84;77.14;97099.33;130363;1268;108710;-77
2022/02/17 10:51:41;;;;;;;6.80;2.10;;;;;;;7.49;77.23;97056.20;130406;1268;108940;-77
2022/02/17 10:55:08;;;;;;;47.00;16.00;;;;;;;7.33;77.20;97040.20;130409;1268;108987;-78
2022/02/17 10:58:19;;;;;;;154.50;63.60;;;;;;;7.39;77.16;97058.34;130421;1268;109142;-78
2022/02/17 11:01:24;;;;;;;96.10;45.60;;;;;;;7.53;77.32;97055.23;130352;1268;108734;-78
2022/02/17 11:04:31;;;;;;;151.40;70.40;;;;;;;7.68;77.28;97051.88;130353;1268;108684;-79
2022/02/17 11:07:38;;;;;;;295.80;135.30;;;;;;;7.89;77.00;97048.29;130422;1268;108724;-76
2022/02/17 11:10:46;;;;;;;131.80;57.10;;;;;;;8.06;76.71;97046.40;130462;1267;108554;-78
2022/02/17 11:13:53;;;;;;;98.40;44.00;;;;;;;8.24;76.78;97051.17;130460;1266;108862;-78
2022/02/17 11:16:58;;;;;;;76.50;36.00;;;;;;;8.49;76.46;97034.23;130490;1268;108795;-77
2022/02/17 11:20:05;;;;;;;57.80;27.80;;;;;;;8.68;76.05;97030.28;130365;1266;106438;-77
2022/02/17 11:23:11;;;;;;;124.50;63.80;;;;;;;8.85;75.38;97024.40;130368;1267;108732;-77
2022/02/17 11:26:26;;;;;;;84.40;43.40;;;;;;;8.96;75.13;97017.75;130306;1268;108799;-78
2022/02/17 11:29:34;;;;;;;34.70;20.40;;;;;;;9.07;75.03;97018.35;130379;1268;108329;-78
2022/02/17 11:32:39;;;;;;;9.10;4.90;;;;;;;9.10;74.21;97023.55;130382;1268;108901;-78
2022/02/17 11:35:45;;;;;;;10.90;5.90;;;;;;;9.03;72.92;97032.10;130420;1268;108993;-77
2022/02/17 11:38:54;;;;;;;7.40;2.80;;;;;;;9.00;72.70;97047.70;130313;1268;108706;-78
2022/02/17 11:42:03;;;;;;;8.40;4.90;;;;;;;9.02;72.90;97036.17;130471;1267;108752;-77
2022/02/17 11:45:16;;;;;;;7.60;3.30;;;;;;;9.13;73.16;97018.00;130456;1268;107440;-78
2022/02/17 11:48:35;;;;;;;7.70;3.70;;;;;;;9.21;72.78;97027.02;130491;1267;108629;-78
2022/02/17 11:51:40;;;;;;;8.80;3.50;;;;;;;9.31;72.21;97027.92;130478;1268;108781;-78
2022/02/17 11:55:24;;;;;;;27.50;17.70;;;;;;;9.34;71.80;97023.75;130441;1267;108851;-78
2022/02/17 11:58:47;;;;;;;62.80;29.00;;;;;;;9.30;70.75;97031.88;130364;1267;108662;-78
2022/02/17 12:01:54;;;;;;;11.20;5.40;;;;;;;9.29;71.05;97042.34;130411;1267;108510;-78
2022/02/17 12:05:17;;;;;;;12.50;6.00;;;;;;;9.29;69.84;97048.34;130394;1268;108941;-79
2022/02/17 12:08:24;;;;;;;12.40;4.00;;;;;;;9.22;70.03;97052.09;130342;1268;108677;-78
2022/02/17 12:11:36;;;;;;;6.40;3.40;;;;;;;9.16;70.10;97049.42;130499;1268;107734;-78
2022/02/17 12:14:47;;;;;;;11.80;7.10;;;;;;;9.12;68.80;97045.55;130441;1266;108776;-78
2022/02/17 12:17:55;;;;;;;6.10;3.50;;;;;;;9.20;69.86;97037.95;130501;1267;107726;-79
2022/02/17 12:21:01;;;;;;;7.00;2.70;;;;;;;9.37;69.37;97048.08;130492;1267;110522;-79
2022/02/17 12:24:07;;;;;;;6.70;2.20;;;;;;;9.47;68.84;97034.80;130527;1267;109005;-77
2022/02/17 12:27:20;;;;;;;5.90;2.70;;;;;;;9.61;68.44;97035.96;130465;1267;108752;-78
2022/02/17 12:30:30;;;;;;;8.10;2.50;;;;;;;9.71;67.83;97035.24;130530;1267;107501;-79
2022/02/17 12:33:38;;;;;;;5.90;2.20;;;;;;;9.63;67.76;97062.95;130483;1267;107804;-79
2022/02/17 12:36:43;;;;;;;6.30;2.60;;;;;;;9.27;68.66;97118.41;130466;1268;108974;-77
2022/02/17 12:39:51;;;;;;;5.50;1.80;;;;;;;8.70;70.96;97160.30;130477;1266;108928;-79
2022/02/17 12:42:56;;;;;;;5.80;2.10;;;;;;;8.27;72.47;97160.38;130498;1268;108863;-77
2022/02/17 12:46:03;;;;;;;4.50;1.70;;;;;;;7.95;73.18;97141.33;130278;1267;106840;-76
2022/02/17 12:49:10;;;;;;;5.20;1.90;;;;;;;7.85;72.98;97142.11;130510;1267;108787;-77
2022/02/17 12:52:20;;;;;;;5.30;1.60;;;;;;;7.83;73.18;97142.01;130477;1268;108709;-76
2022/02/17 12:55:46;;;;;;;3.30;1.20;;;;;;;7.84;73.08;97137.63;130495;1266;108750;-79
2022/02/17 12:58:52;;;;;;;47.10;22.00;;;;;;;7.89;72.97;97134.55;130468;1268;108932;-77
2022/02/17 13:02:00;;;;;;;21.10;11.40;;;;;;;7.99;72.33;97138.66;130281;1267;108937;-77
2022/02/17 13:05:09;;;;;;;12.20;7.20;;;;;;;8.10;72.08;97134.95;130529;1267;108961;-76
2022/02/17 13:08:15;;;;;;;14.80;8.70;;;;;;;8.19;71.13;97131.65;130296;1268;108876;-76
2022/02/17 13:11:23;;;;;;;15.60;8.30;;;;;;;8.27;71.48;97129.58;130526;1267;107315;-76
2022/02/17 13:14:31;;;;;;;17.90;11.60;;;;;;;8.24;70.62;97136.90;130476;1268;109847;-76
2022/02/17 13:17:39;;;;;;;33.80;21.00;;;;;;;8.22;71.07;97140.63;130362;1267;108797;-77
2022/02/17 13:20:45;;;;;;;17.40;8.80;;;;;;;8.21;70.93;97148.24;130435;1267;108268;-76
2022/02/17 13:24:06;;;;;;;19.50;9.00;;;;;;;8.16;71.31;97152.48;130406;1268;108250;-78
2022/02/17 13:27:14;;;;;;;22.70;12.40;;;;;;;8.04;71.26;97162.84;130530;1266;106860;-77
2022/02/17 13:30:20;;;;;;;21.30;12.20;;;;;;;7.97;71.74;97182.41;130519;1267;108843;-78
2022/02/17 13:33:27;;;;;;;9.90;4.60;;;;;;;7.89;71.94;97182.77;130475;1266;108992;-78
2022/02/17 13:36:34;;;;;;;14.80;8.60;;;;;;;7.80;72.79;97196.77;130458;1268;108814;-77
2022/02/17 13:39:40;;;;;;;27.70;14.80;;;;;;;7.74;73.13;97206.11;130501;1266;108898;-77
2022/02/17 13:43:00;;;;;;;11.80;4.30;;;;;;;7.62;74.06;97211.83;130434;1268;107725;-77
2022/02/17 13:46:05;;;;;;;11.90;5.10;;;;;;;7.44;74.12;97220.13;130507;1268;109047;-77
2022/02/17 13:49:18;;;;;;;46.20;26.60;;;;;;;7.35;74.50;97218.63;130457;1267;107704;-77
2022/02/17 13:52:28;;;;;;;18.30;9.30;;;;;;;7.38;74.78;97228.14;130492;1266;108887;-78
2022/02/17 13:55:36;;;;;;;25.90;14.60;;;;;;;7.36;74.84;97231.73;130477;1267;108669;-76
2022/02/17 13:58:42;;;;;;;45.60;25.00;;;;;;;7.36;74.91;97237.40;130469;1268;108872;-76
2022/02/17 14:01:49;;;;;;;30.80;16.50;;;;;;;7.34;74.94;97245.44;130482;1268;107092;-77
2022/02/17 14:05:06;;;;;;;60.60;32.20;;;;;;;7.29;75.06;97251.25;130480;1266;108985;-77
2022/02/17 14:08:13;;;;;;;115.10;63.80;;;;;;;7.23;75.11;97262.47;130465;1267;108723;-78
2022/02/17 14:11:20;;;;;;;27.30;14.30;;;;;;;7.23;75.27;97262.46;130311;1268;108645;-78
2022/02/17 14:14:25;;;;;;;51.60;28.60;;;;;;;7.25;74.99;97267.20;130497;1268;107767;-78
2022/02/17 14:17:33;;;;;;;6.30;2.40;;;;;;;7.25;75.34;97272.50;130493;1266;108886;-77
2022/02/17 14:20:39;;;;;;;19.70;10.50;;;;;;;7.16;75.65;97278.05;130499;1268;108696;-78
2022/02/17 14:23:45;;;;;;;44.90;22.60;;;;;;;7.12;75.62;97277.92;130446;1268;107673;-77
2022/02/17 14:26:50;;;;;;;25.60;14.70;;;;;;;7.16;75.62;97277.97;130311;1268;108860;-78